Terminal Aerodrome Forecast
Issued by NWS Jackson, MS

Home | Current Version | Previous Version | Text Only | Print | Product List | Glossary On
Versions: 1 2 3 4 5 6 7 8 9 10 11 12 13
000
FTUS44 KJAN 161206 RRB
TAFMEI
TAF
KMEI 161206Z 1612/1712 36010KT P6SM SCT025 BKN050
     FM161500 35012KT P6SM BKN015
     FM161700 35012KT P6SM -SN BKN015
     FM161900 34015KT 4SM -SN BR BKN015
     FM162100 34016KT 2SM -SN BR BKN015
     FM170200 34017KT P6SM -SN BKN025=

USA.gov is the U.S. government's official web portal to all federal, state and local government web resources and services.